Airfield :
LOGIN :

Register | Disclaimer

   EN    FR    IT 

 










Legend :    VFR   Marginal VFR   IFR   Intensive IFR   Very Intensive IFR
Visi :
Ceiling :
>= 8 km
>= 3000ft
5 to 8 km
1000 to 3000 ft
1500m to 5 km
500 to 1000 ft
800 to 1500m
200 to 500 ft
< 800m
< 200 ft
Symbols :   Thunderstorms  Fog  Heavy snow  Heavy precipitations  Wind > 20 kt
SIGMETs :     Misc.  Thunderstorms  Icing  Turbulence  Mountain Waves  Volcanic Ashes







- Airport Elevation : 0 ft


ETEB - Ansbach Army Heliport

CURRENT METAR :
  • 200856Z AUTO 24007KT 9999 OVC009 01/00 A2981 RMK AO2 RAE16SNB16E45RAB45E48 CIG 007V009 SLP130 P0000 60008 T00051002 58002 $

EXPIRED METARs :
  • 200834Z AUTO 24005KT 4000 -SN BR BKN007 OVC012 00/00 A2982 RMK AO2 VIS 4000V6000 RAE16SNB16 SLP135 $
  • 200756Z AUTO 24009KT 9999 -RA BKN008 OVC014 00/00 A2982 RMK AO2 SNE45FZRAB45E47RAB47 BKN V OVC SLP135 P0002 T00021001 $
  • 200747Z AUTO 24009KT 9999 -RA OVC009 00/00 A2982 RMK AO2 SNE45FZRAB45E47RAB47 CIG 007V009 SLP135 $
  • 200738Z AUTO 23008KT 1800 -SN BR VV009 00/00 A2981 RMK AO2 VIS 0800V1800 SLP132 $
  • 200728Z AUTO 24007KT 1200 -SN BR OVC010 00/00 A2982 RMK AO2 VIS 1200V5000 CIG 009V011 CIG 009 RWY26 SLP135 RVRNO $
  • 200721Z AUTO 23008KT 4400 -SN BR FEW006 OVC011 00/00 A2982 RMK AO2 VIS 4000V5000 SLP135 $
  • 200706Z AUTO 24007KT 6000 -SN BR FEW006 OVC010 00/00 A2982 RMK AO2 SLP135 $
  • 200656Z AUTO 24008KT 4000 -SN BR OVC010 00/00 A2982 RMK AO2 VIS 3200V4000 SLP135 P0006 T00011002 $
  • 200648Z AUTO 24007KT 3200 -SN BR OVC010 00/00 A2982 RMK AO2 VIS 2200V3200 CIG 008V010 SLP135 $
  • 200633Z AUTO 25008KT 2800 -SN BR OVC010 00/00 A2982 RMK AO2 VIS 2800V4400 SLP135 $
  • 200618Z AUTO 25010KT 1800 -SN BR OVC009 00/00 A2982 RMK AO2 VIS 1600V2400 SLP135 $
  • 200601Z AUTO 25009KT 1800 -SN BR OVC005 00/00 A2982 RMK AO2 VIS 0800V1800 SLP135 $

TAF AMD TAF ETEB
Valid from the 20 at 02:00 until the 21 at 04:00 UTC


200236Z 2002/2104 27009KT 5000 -RASN SCT035 QNH2985INS
TEMPO 2002/2004 BKN010
BECMG 2008/2009 21009KT 9999 NSW BKN025 610253 QNH2974INS
BECMG 2012/2013 15006KT 5000 -SN BKN015 610209 QNH2962INS
BECMG 2015/2016 17009KT 3200 SN BKN010 610109 QNH2944INS TX01/2011Z TNM02/2003Z LAST NO AMDS AFT 2002 NEXT 2121
No reported NOTAMs for that airfield.



MET'MAP, your aeronautical weather chart ! - Copyright ORBIFLY December 2007 - Disclaimer

ORBIFLY MET'MAP TEAM :

Programming & Development : Alexandra Zaïnal
Concept & Development : Baudouin d'Aumeries
Co-Development & Prog : Marc-Olivier Méhu
Technical & hardware support : Manuel Goepfert

Contact : metmap@orbifly.com




SOURCES & CREDITS :

   NOAA